createdAt,value
2022-12-26T00:01:27.176Z,8.40
2022-12-26T00:04:51.491Z,6.75
2022-12-26T00:07:56.021Z,6.10
2022-12-26T00:11:00.537Z,3.50
2022-12-26T00:14:13.988Z,7.50
2022-12-26T00:17:18.287Z,8.68
2022-12-26T00:20:22.834Z,3.40
2022-12-26T00:23:27.167Z,8.13
2022-12-26T00:26:33.472Z,9.02
2022-12-26T00:29:37.672Z,6.28
2022-12-26T00:32:42.213Z,9.07
2022-12-26T00:35:46.894Z,8.57
2022-12-26T00:38:51.855Z,10.00
2022-12-26T00:41:55.834Z,5.47
2022-12-26T00:45:00.089Z,5.93
2022-12-26T00:48:04.767Z,7.05
2022-12-26T00:51:09.287Z,6.38
2022-12-26T00:54:13.924Z,7.82
2022-12-26T00:57:18.169Z,8.23
2022-12-26T01:00:22.451Z,9.90
2022-12-26T01:03:26.811Z,7.80
2022-12-26T01:06:31.579Z,6.53
2022-12-26T01:09:38.159Z,8.90
2022-12-26T01:12:42.594Z,10.15
2022-12-26T01:15:51.521Z,8.13
2022-12-26T01:18:56.114Z,7.97
2022-12-26T01:22:00.440Z,8.32
2022-12-26T01:25:05.528Z,7.03
2022-12-26T01:28:09.715Z,7.28
2022-12-26T01:31:14.218Z,7.18
2022-12-26T01:34:18.464Z,9.43
2022-12-26T01:37:23.552Z,10.83
2022-12-26T01:40:28.128Z,10.55
2022-12-26T01:43:51.603Z,9.93
2022-12-26T01:46:56.053Z,10.73
2022-12-26T01:50:00.858Z,11.52
2022-12-26T01:53:21.646Z,9.65
2022-12-26T01:56:32.507Z,13.52
2022-12-26T01:59:40.676Z,13.60
2022-12-26T02:03:09.432Z,10.10
2022-12-26T02:06:15.559Z,13.45
2022-12-26T02:09:20.697Z,17.65
2022-12-26T02:15:42.466Z,13.20
2022-12-26T02:18:46.991Z,16.95
2022-12-26T02:22:17.711Z,18.50
2022-12-26T02:25:32.012Z,17.42
2022-12-26T02:28:39.901Z,17.80
2022-12-26T02:32:05.924Z,18.88
2022-12-26T02:35:48.504Z,16.50
2022-12-26T02:39:45.587Z,20.42
2022-12-26T02:42:53.828Z,19.20
2022-12-26T02:46:40.372Z,18.15
2022-12-26T02:50:31.598Z,16.50
2022-12-26T02:54:06.375Z,17.48
2022-12-26T02:57:37.211Z,16.27
2022-12-26T03:01:04.362Z,12.63
2022-12-26T03:04:31.686Z,18.80
2022-12-26T03:07:59.080Z,18.35
2022-12-26T03:11:23.107Z,15.75
2022-12-26T03:14:31.979Z,16.05
2022-12-26T03:17:39.705Z,15.93
2022-12-26T03:20:43.892Z,14.38
2022-12-26T03:23:51.544Z,11.88
2022-12-26T03:26:56.228Z,12.73
2022-12-26T03:30:19.200Z,17.52
2022-12-26T03:33:46.243Z,20.20
2022-12-26T03:37:07.812Z,13.40
2022-12-26T03:41:07.006Z,13.43
2022-12-26T03:44:46.241Z,10.90
2022-12-26T03:48:11.894Z,11.38
2022-12-26T03:51:53.698Z,18.05
2022-12-26T03:55:26.942Z,13.07
2022-12-26T03:59:11.990Z,15.73
2022-12-26T04:02:37.544Z,17.67
2022-12-26T04:06:04.004Z,13.02
2022-12-26T04:09:53.808Z,14.63
2022-12-26T04:13:19.929Z,13.85
2022-12-26T04:16:54.452Z,19.58
2022-12-26T04:20:57.463Z,13.30
2022-12-26T04:24:27.437Z,15.05
2022-12-26T04:27:51.459Z,9.80
2022-12-26T04:31:24.535Z,16.17
2022-12-26T04:35:04.093Z,17.38
2022-12-26T04:38:29.876Z,14.35
2022-12-26T04:44:58.963Z,11.50
2022-12-26T04:48:21.845Z,11.00
2022-12-26T04:51:26.280Z,11.73
2022-12-26T04:54:30.512Z,18.67
2022-12-26T04:57:34.904Z,13.43
2022-12-26T05:00:39.297Z,10.38
2022-12-26T05:04:02.284Z,6.80
2022-12-26T05:07:36.028Z,13.23
2022-12-26T05:10:40.382Z,9.10
2022-12-26T05:13:44.799Z,9.63
2022-12-26T05:17:08.055Z,9.93
2022-12-26T05:20:32.059Z,12.13
2022-12-26T05:23:55.172Z,11.90
2022-12-26T05:27:18.237Z,8.10
2022-12-26T05:30:23.660Z,9.20
2022-12-26T05:33:46.980Z,12.18
2022-12-26T05:36:56.528Z,10.35
2022-12-26T05:40:01.262Z,13.13
2022-12-26T05:46:10.235Z,10.82
2022-12-26T05:49:14.642Z,10.48
2022-12-26T05:52:18.986Z,13.27
2022-12-26T05:55:24.375Z,12.55
2022-12-26T05:58:28.592Z,10.93
2022-12-26T06:01:33.355Z,14.50
2022-12-26T06:04:38.264Z,15.88
2022-12-26T06:07:42.659Z,14.65
2022-12-26T06:10:46.816Z,15.33
2022-12-26T06:13:51.071Z,15.27
2022-12-26T06:16:55.765Z,10.75
2022-12-26T06:20:00.418Z,14.52
2022-12-26T06:23:04.906Z,15.70
2022-12-26T06:26:10.353Z,12.70
2022-12-26T06:29:14.817Z,14.48
2022-12-26T06:32:19.043Z,16.25
2022-12-26T06:35:23.838Z,13.57
2022-12-26T06:38:29.819Z,15.40
2022-12-26T06:41:34.277Z,16.65
2022-12-26T06:44:38.556Z,17.42
2022-12-26T06:47:43.071Z,15.07
2022-12-26T06:50:47.681Z,12.50
2022-12-26T06:53:53.404Z,15.57
2022-12-26T06:56:57.834Z,16.95
2022-12-26T07:00:02.644Z,10.13
2022-12-26T07:03:07.058Z,11.73
2022-12-26T07:06:18.735Z,16.75
2022-12-26T07:09:27.044Z,10.75
2022-12-26T07:12:35.235Z,15.73
2022-12-26T07:15:39.351Z,13.05
2022-12-26T07:18:43.804Z,14.65
2022-12-26T07:21:48.244Z,14.43
2022-12-26T07:24:52.616Z,15.15
2022-12-26T07:27:56.980Z,15.98
2022-12-26T07:31:01.937Z,14.38
2022-12-26T07:34:07.270Z,15.27
2022-12-26T07:40:15.830Z,11.43
2022-12-26T07:43:20.455Z,10.90
2022-12-26T07:46:25.055Z,11.43
2022-12-26T07:49:29.234Z,13.18
2022-12-26T07:52:33.743Z,12.32
2022-12-26T07:55:38.054Z,13.13
2022-12-26T07:58:42.574Z,8.95
2022-12-26T08:01:47.080Z,17.83
2022-12-26T08:04:53.037Z,17.58
2022-12-26T08:07:57.524Z,14.75
2022-12-26T08:11:03.907Z,11.88
2022-12-26T08:14:12.269Z,11.13
2022-12-26T08:17:16.969Z,12.65
2022-12-26T08:20:21.865Z,13.13
2022-12-26T08:23:26.203Z,13.30
2022-12-26T08:26:30.839Z,13.82
2022-12-26T08:29:35.154Z,14.90
2022-12-26T08:32:42.460Z,9.95
2022-12-26T08:35:48.862Z,12.88
2022-12-26T08:38:54.133Z,8.67
2022-12-26T08:41:58.452Z,12.07
2022-12-26T08:45:02.685Z,8.07
2022-12-26T08:48:06.837Z,10.00
2022-12-26T08:51:16.746Z,13.60
2022-12-26T08:54:20.863Z,16.83
2022-12-26T08:57:25.149Z,14.23
2022-12-26T09:00:29.772Z,13.88
2022-12-26T09:03:34.590Z,8.57
2022-12-26T09:06:40.030Z,13.90
2022-12-26T09:09:45.046Z,14.82
2022-12-26T09:12:49.555Z,20.83
2022-12-26T09:15:53.915Z,15.07
2022-12-26T09:19:01.188Z,8.07
2022-12-26T09:22:23.999Z,16.00
2022-12-26T09:25:28.600Z,20.63
2022-12-26T09:28:34.162Z,23.73
2022-12-26T09:34:42.839Z,13.00
2022-12-26T09:37:47.292Z,17.58
2022-12-26T09:41:13.419Z,16.27
2022-12-26T09:44:30.258Z,17.80
2022-12-26T09:47:43.855Z,16.60
2022-12-26T09:50:51.296Z,15.90
2022-12-26T09:53:56.322Z,20.77
2022-12-26T09:57:06.316Z,15.43
2022-12-26T10:00:28.702Z,17.63
2022-12-26T10:03:39.407Z,21.20
2022-12-26T10:06:53.881Z,16.58
2022-12-26T10:10:07.227Z,16.23
2022-12-26T10:13:21.884Z,15.35
2022-12-26T10:16:48.818Z,17.20
2022-12-26T10:19:59.848Z,18.65
2022-12-26T10:23:47.552Z,15.75
2022-12-26T10:27:06.922Z,21.70
2022-12-26T10:30:23.322Z,16.20
2022-12-26T10:33:41.932Z,17.40
2022-12-26T10:36:52.115Z,18.85
2022-12-26T10:40:39.113Z,18.08
2022-12-26T10:43:45.001Z,18.25
2022-12-26T10:47:14.064Z,16.65
2022-12-26T10:50:27.354Z,15.35
2022-12-26T10:53:32.711Z,15.82
2022-12-26T10:59:46.158Z,18.88
2022-12-26T11:03:12.541Z,20.98
2022-12-26T11:06:19.708Z,23.00
2022-12-26T11:09:59.833Z,21.98
2022-12-26T11:13:08.981Z,26.52
2022-12-26T11:16:23.096Z,25.75
2022-12-26T11:19:30.823Z,22.20
2022-12-26T11:22:35.207Z,17.73
2022-12-26T11:25:49.094Z,18.05
2022-12-26T11:29:06.064Z,14.45
2022-12-26T11:32:19.582Z,14.32
2022-12-26T11:35:26.921Z,15.05
2022-12-26T11:38:44.593Z,15.30
2022-12-26T11:41:51.423Z,16.58
2022-12-26T11:44:57.019Z,13.88
2022-12-26T11:48:01.572Z,14.60
2022-12-26T11:51:05.953Z,12.45
2022-12-26T11:54:19.935Z,10.73
2022-12-26T11:57:32.641Z,9.18
2022-12-26T12:01:05.693Z,9.15
2022-12-26T12:04:10.115Z,12.55
2022-12-26T12:07:32.280Z,12.32
2022-12-26T12:10:47.700Z,12.05
2022-12-26T12:14:04.191Z,9.65
2022-12-26T12:17:23.691Z,9.50
2022-12-26T12:21:01.245Z,11.25
2022-12-26T12:24:36.132Z,9.90
2022-12-26T12:28:19.010Z,11.47
2022-12-26T12:31:42.973Z,18.70
2022-12-26T12:35:18.451Z,16.70
2022-12-26T12:38:56.325Z,15.60
2022-12-26T12:42:31.082Z,12.80
2022-12-26T12:45:41.431Z,12.32
2022-12-26T12:49:16.478Z,9.95
2022-12-26T12:52:59.681Z,11.63
2022-12-26T12:56:18.154Z,18.40
2022-12-26T12:59:43.802Z,18.45
2022-12-26T13:06:01.339Z,25.20
2022-12-26T13:09:13.913Z,28.92
2022-12-26T13:12:26.296Z,27.50
2022-12-26T13:15:35.919Z,34.28
2022-12-26T13:18:49.230Z,31.98
2022-12-26T13:22:00.583Z,40.63
2022-12-26T13:25:05.005Z,42.35
2022-12-26T13:28:17.840Z,39.10
2022-12-26T13:31:22.477Z,57.40
2022-12-26T13:34:27.619Z,47.22
2022-12-26T13:37:37.966Z,43.10
2022-12-26T13:41:34.236Z,50.70
2022-12-26T13:44:39.277Z,52.80
2022-12-26T13:47:43.527Z,45.78
2022-12-26T13:50:56.183Z,54.50
2022-12-26T13:54:08.877Z,49.88
2022-12-26T13:57:29.516Z,48.85
2022-12-26T14:00:45.724Z,52.38
2022-12-26T14:04:23.667Z,43.78
2022-12-26T14:07:42.618Z,52.10
2022-12-26T14:11:02.614Z,42.25
2022-12-26T14:14:22.078Z,41.45
2022-12-26T14:17:47.390Z,43.20
2022-12-26T14:21:14.881Z,42.45
2022-12-26T14:24:24.424Z,42.42
2022-12-26T14:27:49.559Z,40.65
2022-12-26T14:31:13.851Z,43.42
2022-12-26T14:34:30.031Z,39.10
2022-12-26T14:37:48.331Z,38.80
2022-12-26T14:41:34.860Z,40.65
2022-12-26T14:47:48.684Z,30.73
2022-12-26T14:51:19.055Z,36.67
2022-12-26T14:54:24.694Z,41.83
2022-12-26T14:57:40.218Z,33.63
2022-12-26T15:00:44.900Z,34.22
2022-12-26T15:03:59.387Z,38.60
2022-12-26T15:07:20.862Z,35.88
2022-12-26T15:11:06.125Z,36.28
2022-12-26T15:14:25.550Z,36.80
2022-12-26T15:17:45.675Z,27.88
2022-12-26T15:21:05.336Z,32.65
2022-12-26T15:25:16.614Z,34.72
2022-12-26T15:27:59.436Z,30.17
2022-12-26T15:31:28.876Z,35.65
2022-12-26T15:34:47.931Z,33.53
2022-12-26T15:37:59.910Z,40.75
2022-12-26T15:41:38.807Z,26.13
2022-12-26T15:44:51.706Z,28.45
2022-12-26T15:48:02.093Z,29.40
2022-12-26T15:51:44.348Z,27.60
2022-12-26T15:55:08.705Z,26.80
2022-12-26T15:58:22.556Z,28.08
2022-12-26T16:01:42.825Z,28.60
2022-12-26T16:04:54.365Z,27.20
2022-12-26T16:08:27.675Z,29.63
2022-12-26T16:11:56.098Z,23.50
2022-12-26T16:15:09.262Z,23.98
2022-12-26T16:18:19.469Z,16.42
2022-12-26T16:21:45.926Z,22.58
2022-12-26T16:24:52.017Z,23.48
2022-12-26T16:27:58.510Z,25.52
2022-12-26T16:31:04.595Z,19.80
2022-12-26T16:34:17.129Z,23.40
2022-12-26T16:37:23.790Z,16.23
2022-12-26T16:40:34.323Z,14.32
2022-12-26T16:43:38.445Z,11.98
2022-12-26T16:46:42.765Z,12.27
2022-12-26T16:49:47.403Z,14.02
2022-12-26T16:56:34.305Z,9.10
2022-12-26T16:59:52.448Z,19.52
2022-12-26T17:02:59.542Z,16.02
2022-12-26T17:06:11.571Z,13.20
2022-12-26T17:09:17.482Z,16.25
2022-12-26T17:12:37.198Z,15.13
2022-12-26T17:15:53.567Z,21.20
2022-12-26T17:19:18.657Z,17.65
2022-12-26T17:22:36.821Z,8.13
2022-12-26T17:25:45.640Z,4.13
2022-12-26T17:28:53.659Z,9.10
2022-12-26T17:31:58.175Z,7.45
2022-12-26T17:35:10.855Z,11.32
2022-12-26T17:38:21.071Z,11.13
2022-12-26T17:41:25.475Z,4.22
2022-12-26T17:44:48.151Z,4.82
2022-12-26T17:47:56.990Z,6.65
2022-12-26T17:51:06.885Z,11.95
2022-12-26T17:54:11.460Z,5.63
2022-12-26T17:57:24.697Z,7.75
2022-12-26T18:00:29.153Z,13.77
2022-12-26T18:03:33.911Z,7.82
2022-12-26T18:06:40.519Z,9.98
2022-12-26T18:09:46.357Z,6.53
2022-12-26T18:12:51.843Z,8.45
2022-12-26T18:15:57.922Z,19.67
2022-12-26T18:19:02.153Z,17.95
2022-12-26T18:22:15.892Z,10.73
2022-12-26T18:25:23.353Z,10.88
2022-12-26T18:28:28.331Z,10.30
2022-12-26T18:31:33.416Z,19.40
2022-12-26T18:34:37.852Z,13.73
2022-12-26T18:37:53.030Z,10.50
2022-12-26T18:41:02.126Z,18.42
2022-12-26T18:44:06.611Z,12.30
2022-12-26T18:47:14.219Z,9.85
2022-12-26T18:50:18.802Z,6.75
2022-12-26T18:53:23.157Z,15.80
2022-12-26T18:56:27.662Z,10.35
2022-12-26T18:59:31.941Z,15.57
2022-12-26T19:02:36.264Z,14.03
2022-12-26T19:05:40.800Z,18.67
2022-12-26T19:08:45.551Z,21.50
2022-12-26T19:11:50.093Z,11.52
2022-12-26T19:14:54.551Z,10.95
2022-12-26T19:17:58.916Z,15.37
2022-12-26T19:21:03.909Z,12.27
2022-12-26T19:24:10.817Z,9.75
2022-12-26T19:27:15.394Z,22.83
2022-12-26T19:30:21.506Z,23.08
2022-12-26T19:33:25.924Z,25.02
2022-12-26T19:36:30.488Z,21.52
2022-12-26T19:39:35.142Z,22.38
2022-12-26T19:42:39.802Z,24.73
2022-12-26T19:45:45.722Z,15.00
2022-12-26T19:48:50.298Z,25.90
2022-12-26T19:51:54.731Z,14.82
2022-12-26T19:54:59.027Z,14.60
2022-12-26T19:58:03.372Z,16.70
2022-12-26T20:01:10.453Z,14.88
2022-12-26T20:04:15.146Z,18.02
2022-12-26T20:07:19.549Z,31.90
2022-12-26T20:10:23.957Z,15.75
2022-12-26T20:13:28.099Z,28.02
2022-12-26T20:19:57.700Z,18.35
2022-12-26T20:23:01.987Z,19.87
2022-12-26T20:26:11.599Z,23.77
2022-12-26T20:29:16.586Z,21.08
2022-12-26T20:32:20.814Z,16.30
2022-12-26T20:35:24.933Z,18.00
2022-12-26T20:38:29.497Z,14.27
2022-12-26T20:41:34.444Z,20.65
2022-12-26T20:44:41.379Z,17.17
2022-12-26T20:47:45.791Z,26.67
2022-12-26T20:51:01.577Z,18.37
2022-12-26T20:54:07.019Z,28.10
2022-12-26T20:57:11.342Z,17.13
2022-12-26T21:00:16.377Z,23.70
2022-12-26T21:06:31.276Z,22.67
2022-12-26T21:09:39.658Z,20.45
2022-12-26T21:12:46.775Z,25.75
2022-12-26T21:15:51.179Z,26.38
2022-12-26T21:18:56.542Z,14.10
2022-12-26T21:22:01.233Z,14.95
2022-12-26T21:25:06.406Z,16.65
2022-12-26T21:28:10.692Z,16.23
2022-12-26T21:31:15.054Z,21.40
2022-12-26T21:34:22.398Z,17.90
2022-12-26T21:37:45.508Z,25.73
2022-12-26T21:40:50.756Z,13.85
2022-12-26T21:46:59.435Z,30.27
2022-12-26T21:50:04.167Z,28.27
2022-12-26T21:53:09.980Z,19.98
2022-12-26T21:56:16.528Z,27.70
2022-12-26T21:59:39.275Z,15.73
2022-12-26T22:03:02.472Z,18.83
2022-12-26T22:06:15.399Z,22.63
2022-12-26T22:09:20.106Z,26.65
2022-12-26T22:12:43.046Z,37.38
2022-12-26T22:16:07.063Z,21.70
2022-12-26T22:19:11.499Z,17.27
2022-12-26T22:22:16.359Z,20.27
2022-12-26T22:25:20.888Z,14.43
2022-12-26T22:28:26.216Z,25.33
2022-12-26T22:31:33.164Z,24.55
2022-12-26T22:34:37.467Z,29.70
2022-12-26T22:37:41.899Z,33.63
2022-12-26T22:40:55.156Z,23.60
2022-12-26T22:43:59.520Z,18.42
2022-12-26T22:47:03.725Z,25.15
2022-12-26T22:50:08.579Z,24.57
2022-12-26T22:53:13.285Z,25.13
2022-12-26T22:56:17.678Z,12.60
2022-12-26T22:59:49.282Z,19.50
2022-12-26T23:02:46.650Z,24.42
2022-12-26T23:05:51.500Z,19.37
2022-12-26T23:08:57.789Z,20.75
2022-12-26T23:12:21.625Z,33.15
2022-12-26T23:15:27.868Z,26.88
2022-12-26T23:18:59.683Z,25.42
2022-12-26T23:22:05.122Z,35.55
2022-12-26T23:25:11.713Z,27.25
2022-12-26T23:28:34.563Z,26.52
2022-12-26T23:31:38.948Z,27.50
2022-12-26T23:34:43.446Z,31.73
2022-12-26T23:37:48.018Z,36.03
2022-12-26T23:40:52.741Z,39.60
2022-12-26T23:43:57.228Z,27.45
2022-12-26T23:47:01.718Z,35.37
2022-12-26T23:50:07.513Z,25.45
2022-12-26T23:53:11.979Z,22.77
2022-12-26T23:56:16.269Z,24.40
2022-12-26T23:59:20.584Z,26.13
